EHVK

Volkel Air Base Airport

Uden, The Netherlands
METAR EHVK 162355Z AUTO 25008KT 9999 SCT025 SCT041 02/01 Q1018 BLU
Observed Flight Rules
Dec-16 @ 23:55 UTC (17 minutes ago) Visual Flight Rules
Wind Visibility Clouds
250° at 8 knots 10,000+ meters
  • Scattered at 2,500' AGL
  • Scattered at 4,100' AGL
Temperatures Readings
Current 2°C / 36°F
Dewpoint 1°C / 34°F
Humidity 93%
Altimeter 30.06" Hg
Pressure 1018 hPa
Elevation 21
METAR EHVK 162355Z AUTO 25008KT 9999 SCT025 SCT041 02/01 Q1018 BLU
Observed Flight Rules
Dec-16 @ 23:55 UTC
(17 minutes ago)
VFR
Wind Visibility
250° at 8 knots 10,000+ meters
Clouds
  • Scattered at 2,500' AGL
  • Scattered at 4,100' AGL
Temperature Dewpoint
2°C / 36°F 1°C / 34°F
Humidity Altimeter Pressure
93% 30.06" Hg 1018 hPa